createdAt,value
2017-11-04T00:00:20.763Z,8.89
2017-11-04T00:01:20.981Z,8.87
2017-11-04T00:02:20.641Z,8.87
2017-11-04T00:03:20.632Z,8.79
2017-11-04T00:04:20.626Z,8.81
2017-11-04T00:05:20.960Z,8.71
2017-11-04T00:06:21.036Z,8.68
2017-11-04T00:07:20.928Z,8.68
2017-11-04T00:08:20.271Z,8.72
2017-11-04T00:09:20.909Z,8.71
2017-11-04T00:10:20.584Z,8.75
2017-11-04T00:11:20.892Z,8.75
2017-11-04T00:12:20.884Z,8.82
2017-11-04T00:13:20.553Z,8.9
2017-11-04T00:14:20.551Z,8.97
2017-11-04T00:15:20.867Z,8.99
2017-11-04T00:16:20.537Z,8.97
2017-11-04T00:17:20.198Z,8.9
2017-11-04T00:18:20.190Z,8.97
2017-11-04T00:19:20.605Z,9
2017-11-04T00:20:20.599Z,8.96
2017-11-04T00:21:20.166Z,9.08
2017-11-04T00:22:20.159Z,9
2017-11-04T00:23:20.470Z,9.08
2017-11-04T00:24:20.464Z,9.03
2017-11-04T00:25:20.466Z,9.03
2017-11-04T00:26:20.769Z,8.93
2017-11-04T00:27:20.444Z,8.9
2017-11-04T00:28:20.754Z,8.92
2017-11-04T00:29:20.432Z,9
2017-11-04T00:30:20.417Z,8.99
2017-11-04T00:31:20.427Z,8.89
2017-11-04T00:32:20.732Z,8.82
2017-11-04T00:33:20.716Z,8.77
2017-11-04T00:34:20.061Z,8.71
2017-11-04T00:35:20.697Z,8.75
2017-11-04T00:36:20.146Z,8.71
2017-11-04T00:37:20.364Z,8.71
2017-11-04T00:38:20.028Z,8.72
2017-11-04T00:39:20.353Z,8.69
2017-11-04T00:40:20.013Z,8.64
2017-11-04T00:41:20.325Z,8.61
2017-11-04T00:42:20.323Z,8.66
2017-11-04T00:43:20.314Z,8.59
2017-11-04T00:44:20.311Z,8.61
2017-11-04T00:45:20.309Z,8.69
2017-11-04T00:46:20.295Z,8.6
2017-11-04T00:47:19.957Z,8.54
2017-11-04T00:48:20.600Z,8.57
2017-11-04T00:49:20.264Z,8.54
2017-11-04T00:50:20.588Z,8.54
2017-11-04T00:51:20.247Z,8.54
2017-11-04T00:52:20.560Z,8.6
2017-11-04T00:53:19.909Z,8.66
2017-11-04T00:54:20.546Z,8.61
2017-11-04T00:55:20.584Z,8.69
2017-11-04T00:56:20.208Z,8.68
2017-11-04T00:57:20.518Z,8.75
2017-11-04T00:58:19.968Z,8.81
2017-11-04T00:59:20.187Z,8.75
2017-11-04T01:00:20.176Z,8.79
2017-11-04T01:01:20.168Z,8.82
2017-11-04T01:02:20.490Z,8.84
2017-11-04T01:03:20.476Z,8.82
2017-11-04T01:04:20.142Z,8.87
2017-11-04T01:05:20.140Z,8.87
2017-11-04T01:06:20.125Z,8.89
2017-11-04T01:07:20.118Z,8.87
2017-11-04T01:08:19.787Z,8.86
2017-11-04T01:09:19.794Z,8.92
2017-11-04T01:10:20.097Z,8.87
2017-11-04T01:11:19.864Z,8.9
2017-11-04T01:12:20.080Z,8.9
2017-11-04T01:13:20.390Z,8.9
2017-11-04T01:14:20.068Z,8.84
2017-11-04T01:15:20.057Z,8.84
2017-11-04T01:16:20.057Z,8.75
2017-11-04T01:17:19.713Z,8.72
2017-11-04T01:18:20.030Z,8.78
2017-11-04T01:19:20.340Z,8.75
2017-11-04T01:20:19.690Z,8.68
2017-11-04T01:21:19.685Z,8.72
2017-11-04T01:22:20.004Z,8.68
2017-11-04T01:23:19.991Z,8.74
2017-11-04T01:24:19.984Z,8.64
2017-11-04T01:25:19.974Z,8.66
2017-11-04T01:26:19.976Z,8.63
2017-11-04T01:27:19.959Z,8.56
2017-11-04T01:28:19.947Z,8.64
2017-11-04T01:29:19.947Z,8.63
2017-11-04T01:30:19.610Z,8.61
2017-11-04T01:31:19.925Z,8.59
2017-11-04T01:32:19.927Z,8.61
2017-11-04T01:33:20.015Z,8.61
2017-11-04T01:34:19.903Z,8.56
2017-11-04T01:35:20.214Z,8.63
2017-11-04T01:36:19.883Z,8.53
2017-11-04T01:37:19.873Z,8.57
2017-11-04T01:38:19.867Z,8.54
2017-11-04T01:39:19.859Z,8.53
2017-11-04T01:40:19.535Z,8.57
2017-11-04T01:41:19.842Z,8.56
2017-11-04T01:42:20.153Z,8.53
2017-11-04T01:43:20.248Z,8.46
2017-11-04T01:44:20.140Z,8.46
2017-11-04T01:45:19.488Z,8.39
2017-11-04T01:46:19.798Z,8.49
2017-11-04T01:47:19.469Z,8.5
2017-11-04T01:48:20.115Z,8.5
2017-11-04T01:49:19.778Z,8.53
2017-11-04T01:50:19.444Z,8.39
2017-11-04T01:51:19.437Z,8.42
2017-11-04T01:52:19.754Z,8.44
2017-11-04T01:53:20.072Z,8.38
2017-11-04T01:54:19.835Z,8.39
2017-11-04T01:55:19.727Z,8.45
2017-11-04T01:56:20.045Z,8.46
2017-11-04T01:57:19.714Z,8.5
2017-11-04T01:58:19.802Z,8.5
2017-11-04T01:59:19.375Z,8.49
2017-11-04T02:00:20.013Z,8.46
2017-11-04T02:01:19.688Z,8.44
2017-11-04T02:02:19.995Z,8.44
2017-11-04T02:03:19.340Z,8.54
2017-11-04T02:04:19.756Z,8.44
2017-11-04T02:05:19.330Z,8.49
2017-11-04T02:06:19.316Z,8.36
2017-11-04T02:07:19.333Z,8.31
2017-11-04T02:08:19.618Z,8.35
2017-11-04T02:09:19.610Z,8.34
2017-11-04T02:10:19.929Z,8.32
2017-11-04T02:11:19.597Z,8.36
2017-11-04T02:12:19.269Z,8.35
2017-11-04T02:13:19.257Z,8.42
2017-11-04T02:14:19.900Z,8.45
2017-11-04T02:15:19.564Z,8.45
2017-11-04T02:16:19.973Z,8.52
2017-11-04T02:17:19.547Z,8.41
2017-11-04T02:18:19.537Z,8.44
2017-11-04T02:19:19.531Z,8.45
2017-11-04T02:20:19.541Z,8.46
2017-11-04T02:21:19.616Z,8.38
2017-11-04T02:22:19.185Z,8.41
2017-11-04T02:23:19.503Z,8.46
2017-11-04T02:24:19.492Z,8.39
2017-11-04T02:25:19.589Z,8.41
2017-11-04T02:26:19.477Z,8.36
2017-11-04T02:27:19.466Z,8.44
2017-11-04T02:28:19.480Z,8.35
2017-11-04T02:29:19.452Z,8.31
2017-11-04T02:30:19.443Z,8.38
2017-11-04T02:31:19.758Z,8.34
2017-11-04T02:32:19.752Z,8.34
2017-11-04T02:33:19.738Z,8.26
2017-11-04T02:34:19.414Z,8.34
2017-11-04T02:35:19.402Z,8.32
2017-11-04T02:36:19.070Z,8.36
2017-11-04T02:37:19.159Z,8.34
2017-11-04T02:38:19.376Z,8.41
2017-11-04T02:39:19.365Z,8.32
2017-11-04T02:40:19.360Z,8.36
2017-11-04T02:41:19.676Z,8.44
2017-11-04T02:42:19.662Z,8.39
2017-11-04T02:43:19.670Z,8.32
2017-11-04T02:44:19.327Z,8.32
2017-11-04T02:45:19.635Z,8.39
2017-11-04T02:46:19.631Z,8.34
2017-11-04T02:47:19.300Z,8.36
2017-11-04T02:48:19.624Z,8.39
2017-11-04T02:49:19.608Z,8.32
2017-11-04T02:50:18.954Z,8.44
2017-11-04T02:51:19.267Z,8.44
2017-11-04T02:52:19.038Z,8.38
2017-11-04T02:53:19.250Z,8.32
2017-11-04T02:54:19.671Z,8.31
2017-11-04T02:55:19.555Z,8.34
2017-11-04T02:56:19.327Z,8.24
2017-11-04T02:57:19.220Z,8.21
2017-11-04T02:58:19.212Z,8.17
2017-11-04T02:59:19.534Z,8.2
2017-11-04T03:00:19.532Z,8.14
2017-11-04T03:01:19.188Z,8.2
2017-11-04T03:02:19.504Z,8.16
2017-11-04T03:03:19.169Z,8.2
2017-11-04T03:04:18.838Z,8.13
2017-11-04T03:05:19.152Z,8.13
2017-11-04T03:06:19.162Z,8.09
2017-11-04T03:07:19.135Z,8.06
2017-11-04T03:08:18.804Z,8.08
2017-11-04T03:09:19.441Z,8.09
2017-11-04T03:10:19.431Z,8.08
2017-11-04T03:11:19.103Z,8.17
2017-11-04T03:12:19.416Z,8.14
2017-11-04T03:13:19.409Z,8.11
2017-11-04T03:14:19.401Z,8.21
2017-11-04T03:15:19.081Z,8.21
2017-11-04T03:16:19.060Z,8.2
2017-11-04T03:17:19.475Z,8.28
2017-11-04T03:18:19.048Z,8.21
2017-11-04T03:19:18.714Z,8.26
2017-11-04T03:20:19.350Z,8.27
2017-11-04T03:21:18.695Z,8.24
2017-11-04T03:22:19.009Z,8.24
2017-11-04T03:23:19.107Z,8.2
2017-11-04T03:24:18.995Z,8.18
2017-11-04T03:25:18.999Z,8.16
2017-11-04T03:26:18.976Z,8.16
2017-11-04T03:27:18.981Z,8.16
2017-11-04T03:28:18.961Z,8.16
2017-11-04T03:29:18.952Z,8.08
2017-11-04T03:30:19.275Z,8.13
2017-11-04T03:31:19.277Z,8.09
2017-11-04T03:32:19.248Z,8.11
2017-11-04T03:33:18.920Z,8.11
2017-11-04T03:34:18.913Z,8.16
2017-11-04T03:35:19.224Z,8.08
2017-11-04T03:36:18.569Z,8.08
2017-11-04T03:37:19.223Z,8.14
2017-11-04T03:38:19.201Z,8.14
2017-11-04T03:39:18.878Z,8.14
2017-11-04T03:40:19.185Z,8.2
2017-11-04T03:41:19.177Z,8.24
2017-11-04T03:42:18.846Z,8.24
2017-11-04T03:43:19.174Z,8.18
2017-11-04T03:44:19.160Z,8.23
2017-11-04T03:45:18.825Z,8.26
2017-11-04T03:46:18.492Z,8.24
2017-11-04T03:47:18.584Z,8.24
2017-11-04T03:48:18.795Z,8.18
2017-11-04T03:49:19.109Z,8.31
2017-11-04T03:50:18.456Z,8.34
2017-11-04T03:51:18.771Z,8.28
2017-11-04T03:52:19.086Z,8.32
2017-11-04T03:53:18.755Z,8.32
2017-11-04T03:54:18.422Z,8.32
2017-11-04T03:55:18.417Z,8.32
2017-11-04T03:56:18.409Z,8.32
2017-11-04T03:57:18.399Z,8.34
2017-11-04T03:58:18.390Z,8.36
2017-11-04T03:59:18.384Z,8.5
2017-11-04T04:00:19.120Z,8.39
2017-11-04T04:01:18.686Z,8.42
2017-11-04T04:02:18.685Z,8.42
2017-11-04T04:03:18.999Z,8.45
2017-11-04T04:04:18.986Z,8.44
2017-11-04T04:05:18.980Z,8.44
2017-11-04T04:06:18.970Z,8.45
2017-11-04T04:07:18.315Z,8.45
2017-11-04T04:08:18.949Z,8.44
2017-11-04T04:09:18.945Z,8.49
2017-11-04T04:10:18.614Z,8.42
2017-11-04T04:11:18.609Z,8.42
2017-11-04T04:12:18.273Z,8.36
2017-11-04T04:13:18.592Z,8.42
2017-11-04T04:14:18.581Z,8.41
2017-11-04T04:15:18.892Z,8.45
2017-11-04T04:16:18.571Z,8.39
2017-11-04T04:17:18.875Z,8.45
2017-11-04T04:18:18.647Z,8.45
2017-11-04T04:19:18.539Z,8.45
2017-11-04T04:20:18.852Z,8.52
2017-11-04T04:21:18.204Z,8.52
2017-11-04T04:22:18.840Z,8.56
2017-11-04T04:23:18.829Z,8.54
2017-11-04T04:24:18.503Z,8.6
2017-11-04T04:25:18.819Z,8.57
2017-11-04T04:26:18.478Z,8.61
2017-11-04T04:27:18.471Z,8.6
2017-11-04T04:28:18.792Z,8.66
2017-11-04T04:29:18.778Z,8.59
2017-11-04T04:30:18.768Z,8.64
2017-11-04T04:31:18.758Z,8.68
2017-11-04T04:32:18.775Z,8.63
2017-11-04T04:33:18.099Z,8.59
2017-11-04T04:34:18.087Z,8.57
2017-11-04T04:35:18.729Z,8.56
2017-11-04T04:36:18.496Z,8.59
2017-11-04T04:37:18.163Z,8.61
2017-11-04T04:38:18.380Z,8.52
2017-11-04T04:39:18.697Z,8.54
2017-11-04T04:40:18.360Z,8.63
2017-11-04T04:41:18.676Z,8.61
2017-11-04T04:42:18.350Z,8.64
2017-11-04T04:43:18.015Z,8.66
2017-11-04T04:44:18.333Z,8.72
2017-11-04T04:45:18.646Z,8.68
2017-11-04T04:46:18.000Z,8.75
2017-11-04T04:47:18.305Z,8.71
2017-11-04T04:48:18.295Z,8.68
2017-11-04T04:49:18.606Z,8.69
2017-11-04T04:50:18.701Z,8.66
2017-11-04T04:51:18.272Z,8.54
2017-11-04T04:52:18.586Z,8.57
2017-11-04T04:53:17.931Z,8.6
2017-11-04T04:54:17.929Z,8.6
2017-11-04T04:55:18.235Z,8.56
2017-11-04T04:56:18.226Z,8.57
2017-11-04T04:57:18.323Z,8.57
2017-11-04T04:58:18.209Z,8.6
2017-11-04T04:59:18.208Z,8.61
2017-11-04T05:00:18.199Z,8.59
2017-11-04T05:01:18.187Z,8.66
2017-11-04T05:02:17.863Z,8.59
2017-11-04T05:03:17.848Z,8.57
2017-11-04T05:04:18.264Z,8.61
2017-11-04T05:05:18.152Z,8.56
2017-11-04T05:06:18.150Z,8.54
2017-11-04T05:07:18.465Z,8.56
2017-11-04T05:08:18.454Z,8.49
2017-11-04T05:09:18.121Z,8.53
2017-11-04T05:10:18.110Z,8.59
2017-11-04T05:11:18.100Z,8.52
2017-11-04T05:12:18.096Z,8.57
2017-11-04T05:13:18.089Z,8.53
2017-11-04T05:14:18.077Z,8.57
2017-11-04T05:15:18.170Z,8.59
2017-11-04T05:16:17.739Z,8.63
2017-11-04T05:17:18.377Z,8.61
2017-11-04T05:18:18.367Z,8.64
2017-11-04T05:19:18.366Z,8.66
2017-11-04T05:20:18.131Z,8.68
2017-11-04T05:21:18.023Z,8.71
2017-11-04T05:22:18.335Z,8.64
2017-11-04T05:23:17.688Z,8.64
2017-11-04T05:24:18.320Z,8.68
2017-11-04T05:25:18.405Z,8.71
2017-11-04T05:26:17.652Z,8.69
2017-11-04T05:27:18.294Z,8.71
2017-11-04T05:28:17.959Z,8.68
2017-11-04T05:29:17.953Z,8.74
2017-11-04T05:30:17.944Z,8.69
2017-11-04T05:31:17.613Z,8.69
2017-11-04T05:32:18.252Z,8.68
2017-11-04T05:33:18.278Z,8.69
2017-11-04T05:34:17.913Z,8.68
2017-11-04T05:35:18.002Z,8.64
2017-11-04T05:36:17.896Z,8.72
2017-11-04T05:37:17.989Z,8.69
2017-11-04T05:38:17.552Z,8.66
2017-11-04T05:39:17.866Z,8.75
2017-11-04T05:40:17.860Z,8.71
2017-11-04T05:41:17.855Z,8.71
2017-11-04T05:42:17.846Z,8.71
2017-11-04T05:43:17.836Z,8.69
2017-11-04T05:44:17.504Z,8.75
2017-11-04T05:45:17.817Z,8.77
2017-11-04T05:46:17.815Z,8.84
2017-11-04T05:47:17.481Z,8.89
2017-11-04T05:48:17.473Z,8.84
2017-11-04T05:49:17.783Z,8.87
2017-11-04T05:50:17.455Z,8.86
2017-11-04T05:51:18.105Z,8.87
2017-11-04T05:52:18.082Z,8.82
2017-11-04T05:53:17.758Z,8.86
2017-11-04T05:54:17.743Z,8.84
2017-11-04T05:55:17.734Z,8.78
2017-11-04T05:56:18.046Z,8.75
2017-11-04T05:57:17.399Z,8.87
2017-11-04T05:58:17.755Z,8.72
2017-11-04T05:59:17.379Z,8.84
2017-11-04T06:00:17.697Z,8.87
2017-11-04T06:01:17.685Z,8.9
2017-11-04T06:02:17.676Z,8.92
2017-11-04T06:03:18.097Z,8.97
2017-11-04T06:04:17.662Z,8.96
2017-11-04T06:05:17.975Z,8.96
2017-11-04T06:06:17.647Z,8.9
2017-11-04T06:07:17.635Z,8.92
2017-11-04T06:08:17.729Z,8.81
2017-11-04T06:09:17.624Z,8.82
2017-11-04T06:10:17.288Z,8.81
2017-11-04T06:11:17.932Z,8.84
2017-11-04T06:12:17.601Z,8.9
2017-11-04T06:13:17.912Z,8.95
2017-11-04T06:14:17.580Z,8.93
2017-11-04T06:15:17.577Z,8.93
2017-11-04T06:16:17.559Z,9.03
2017-11-04T06:17:17.553Z,8.95
2017-11-04T06:18:17.545Z,8.9
2017-11-04T06:19:17.537Z,8.99
2017-11-04T06:20:17.532Z,8.95
2017-11-04T06:21:17.524Z,8.92
2017-11-04T06:22:17.511Z,8.93
2017-11-04T06:23:17.825Z,8.82
2017-11-04T06:24:17.169Z,8.82
2017-11-04T06:25:17.815Z,8.86
2017-11-04T06:26:17.473Z,8.87
2017-11-04T06:27:17.145Z,8.87
2017-11-04T06:28:17.472Z,8.97
2017-11-04T06:29:17.449Z,8.99
2017-11-04T06:30:17.444Z,8.84
2017-11-04T06:31:17.440Z,8.93
2017-11-04T06:32:17.423Z,8.92
2017-11-04T06:33:17.421Z,8.95
2017-11-04T06:34:17.410Z,8.97
2017-11-04T06:35:17.837Z,8.95
2017-11-04T06:36:17.393Z,8.9
2017-11-04T06:37:17.387Z,8.9
2017-11-04T06:38:17.387Z,8.9
2017-11-04T06:39:17.693Z,8.95
2017-11-04T06:40:17.361Z,8.96
2017-11-04T06:41:17.352Z,9.02
2017-11-04T06:42:17.343Z,8.9
2017-11-04T06:43:17.712Z,8.93
2017-11-04T06:44:17.662Z,8.92
2017-11-04T06:45:16.996Z,8.9
2017-11-04T06:46:16.986Z,8.93
2017-11-04T06:47:17.299Z,8.87
2017-11-04T06:48:17.292Z,8.9
2017-11-04T06:49:16.963Z,8.95
2017-11-04T06:50:17.051Z,8.95
2017-11-04T06:51:17.052Z,8.97
2017-11-04T06:52:17.599Z,9.03
2017-11-04T06:53:17.248Z,8.95
2017-11-04T06:54:17.243Z,8.96
2017-11-04T06:55:17.555Z,8.92
2017-11-04T06:56:16.902Z,8.95
2017-11-04T06:57:17.218Z,9.02
2017-11-04T06:58:17.530Z,8.96
2017-11-04T06:59:16.878Z,8.9
2017-11-04T07:00:16.872Z,8.99
2017-11-04T07:01:16.859Z,9.02
2017-11-04T07:02:17.174Z,9.02
2017-11-04T07:03:17.167Z,9.02
2017-11-04T07:04:16.935Z,9
2017-11-04T07:05:16.823Z,9.03
2017-11-04T07:06:17.142Z,9.02
2017-11-04T07:07:16.808Z,9.03
2017-11-04T07:08:16.805Z,9.08
2017-11-04T07:09:16.791Z,9
2017-11-04T07:10:17.116Z,8.97
2017-11-04T07:11:16.774Z,8.97
2017-11-04T07:12:16.769Z,9.03
2017-11-04T07:13:17.409Z,9.03
2017-11-04T07:14:17.079Z,9.02
2017-11-04T07:15:16.743Z,9.03
2017-11-04T07:16:16.738Z,9.03
2017-11-04T07:17:17.472Z,9.03
2017-11-04T07:18:17.044Z,9.03
2017-11-04T07:19:17.034Z,8.99
2017-11-04T07:20:17.345Z,8.97
2017-11-04T07:21:17.017Z,9.05
2017-11-04T07:22:17.330Z,9.15
2017-11-04T07:23:16.675Z,9.09
2017-11-04T07:24:16.989Z,9.19
2017-11-04T07:25:16.762Z,9.16
2017-11-04T07:26:17.399Z,9.16
2017-11-04T07:27:16.641Z,9.19
2017-11-04T07:28:17.164Z,9.29
2017-11-04T07:29:16.951Z,9.29
2017-11-04T07:30:16.939Z,9.39
2017-11-04T07:31:16.608Z,9.4
2017-11-04T07:32:16.608Z,9.48
2017-11-04T07:33:17.237Z,9.48
2017-11-04T07:34:16.939Z,9.4
2017-11-04T07:35:16.898Z,9.52
2017-11-04T07:36:16.891Z,9.51
2017-11-04T07:37:16.890Z,9.58
2017-11-04T07:38:16.552Z,9.58
2017-11-04T07:39:16.873Z,9.58
2017-11-04T07:40:16.856Z,9.55
2017-11-04T07:41:16.525Z,9.66
2017-11-04T07:42:16.840Z,9.54
2017-11-04T07:43:17.161Z,9.56
2017-11-04T07:44:16.839Z,9.56
2017-11-04T07:45:16.816Z,9.55
2017-11-04T07:46:16.486Z,9.58
2017-11-04T07:47:17.126Z,9.59
2017-11-04T07:48:17.123Z,9.59
2017-11-04T07:49:17.122Z,9.54
2017-11-04T07:50:16.776Z,9.56
2017-11-04T07:51:16.916Z,9.59
2017-11-04T07:52:17.085Z,9.55
2017-11-04T07:53:16.426Z,9.63
2017-11-04T07:54:16.418Z,9.59
2017-11-04T07:55:16.734Z,9.66
2017-11-04T07:56:16.756Z,9.73
2017-11-04T07:57:17.042Z,9.69
2017-11-04T07:58:16.806Z,9.63
2017-11-04T07:59:16.701Z,9.54
2017-11-04T08:00:16.369Z,9.54
2017-11-04T08:01:16.692Z,9.56
2017-11-04T08:02:16.996Z,9.55
2017-11-04T08:03:16.341Z,9.63
2017-11-04T08:04:16.657Z,9.64
2017-11-04T08:05:16.328Z,9.64
2017-11-04T08:06:16.643Z,9.63
2017-11-04T08:07:16.962Z,9.73
2017-11-04T08:08:16.724Z,9.73
2017-11-04T08:09:16.943Z,9.74
2017-11-04T08:10:16.611Z,9.77
2017-11-04T08:11:16.276Z,9.81
2017-11-04T08:12:16.920Z,9.88
2017-11-04T08:13:16.910Z,9.87
2017-11-04T08:14:16.252Z,9.91
2017-11-04T08:15:16.567Z,9.85
2017-11-04T08:16:16.881Z,9.99
2017-11-04T08:17:16.550Z,9.92
2017-11-04T08:18:16.870Z,9.95
2017-11-04T08:19:16.542Z,10.06
2017-11-04T08:20:16.532Z,10.02
2017-11-04T08:21:16.528Z,10.15
2017-11-04T08:22:16.510Z,10.17
2017-11-04T08:23:16.505Z,10.17
2017-11-04T08:24:16.820Z,10.1
2017-11-04T08:25:16.483Z,10.18
2017-11-04T08:26:16.473Z,10.33
2017-11-04T08:27:16.793Z,10.3
2017-11-04T08:28:16.466Z,10.28
2017-11-04T08:29:16.452Z,10.36
2017-11-04T08:30:16.774Z,10.46
2017-11-04T08:31:16.437Z,10.42
2017-11-04T08:32:16.750Z,10.39
2017-11-04T08:33:16.094Z,10.55
2017-11-04T08:34:16.412Z,10.55
2017-11-04T08:35:16.080Z,10.53
2017-11-04T08:36:16.393Z,10.55
2017-11-04T08:37:16.714Z,10.53
2017-11-04T08:38:16.383Z,10.57
2017-11-04T08:39:16.705Z,10.68
2017-11-04T08:40:16.041Z,10.62
2017-11-04T08:41:16.130Z,10.62
2017-11-04T08:42:16.024Z,10.69
2017-11-04T08:43:16.670Z,10.72
2017-11-04T08:44:16.655Z,10.71
2017-11-04T08:45:16.424Z,10.79
2017-11-04T08:46:16.312Z,10.77
2017-11-04T08:47:16.303Z,10.79
2017-11-04T08:48:15.975Z,10.79
2017-11-04T08:49:16.291Z,10.79
2017-11-04T08:50:16.284Z,10.79
2017-11-04T08:51:16.274Z,10.79
2017-11-04T08:52:15.943Z,10.84
2017-11-04T08:53:16.276Z,10.83
2017-11-04T08:54:16.572Z,10.87
2017-11-04T08:55:16.240Z,10.82
2017-11-04T08:56:15.911Z,10.84
2017-11-04T08:57:16.224Z,10.84
2017-11-04T08:58:15.893Z,10.82
2017-11-04T08:59:16.211Z,10.89
2017-11-04T09:00:16.201Z,10.8
2017-11-04T09:01:16.193Z,10.83
2017-11-04T09:02:15.864Z,10.8
2017-11-04T09:03:16.174Z,10.84
2017-11-04T09:04:15.843Z,10.83
2017-11-04T09:05:16.482Z,10.84
2017-11-04T09:06:15.829Z,10.84
2017-11-04T09:07:16.145Z,10.95
2017-11-04T09:08:15.812Z,10.84
2017-11-04T09:09:16.127Z,10.84
2017-11-04T09:10:16.123Z,10.89
2017-11-04T09:11:16.457Z,10.97
2017-11-04T09:12:15.781Z,10.98
2017-11-04T09:13:16.099Z,10.9
2017-11-04T09:14:15.773Z,11.02
2017-11-04T09:15:16.406Z,11.04
2017-11-04T09:16:16.069Z,11.07
2017-11-04T09:17:16.388Z,11.05
2017-11-04T09:18:16.053Z,11.05
2017-11-04T09:19:16.049Z,11.08
2017-11-04T09:20:15.815Z,11.18
2017-11-04T09:21:15.709Z,11.18
2017-11-04T09:22:15.703Z,11.35
2017-11-04T09:23:16.443Z,11.37
2017-11-04T09:24:16.327Z,11.34
2017-11-04T09:25:15.674Z,11.4
2017-11-04T09:26:15.989Z,11.49
2017-11-04T09:27:15.659Z,11.49
2017-11-04T09:28:15.982Z,11.53
2017-11-04T09:29:15.646Z,11.58
2017-11-04T09:30:15.959Z,11.63
2017-11-04T09:31:15.952Z,11.63
2017-11-04T09:32:15.941Z,11.73
2017-11-04T09:33:15.935Z,11.73
2017-11-04T09:34:15.931Z,11.73
2017-11-04T09:35:15.918Z,11.77
2017-11-04T09:36:16.238Z,11.76
2017-11-04T09:37:15.580Z,11.68
2017-11-04T09:38:16.226Z,11.76
2017-11-04T09:39:16.216Z,11.68
2017-11-04T09:40:15.984Z,11.62
2017-11-04T09:41:15.870Z,11.63
2017-11-04T09:42:15.873Z,11.58
2017-11-04T09:43:16.193Z,11.51
2017-11-04T09:44:15.847Z,11.58
2017-11-04T09:45:15.839Z,11.52
2017-11-04T09:46:15.509Z,11.49
2017-11-04T09:47:16.164Z,11.51
2017-11-04T09:48:15.815Z,11.51
2017-11-04T09:49:16.131Z,11.35
2017-11-04T09:50:16.124Z,11.3
2017-11-04T09:51:15.568Z,11.33
2017-11-04T09:52:15.781Z,11.34
2017-11-04T09:53:16.106Z,11.4
2017-11-04T09:54:15.775Z,11.34
2017-11-04T09:55:15.437Z,11.33
2017-11-04T09:56:15.427Z,11.35
2017-11-04T09:57:16.080Z,11.33
2017-11-04T09:58:15.513Z,11.23
2017-11-04T09:59:16.054Z,11.31
2017-11-04T10:00:16.044Z,11.3
2017-11-04T10:01:15.388Z,11.33
2017-11-04T10:02:15.823Z,11.19
2017-11-04T10:03:15.699Z,11.31
2017-11-04T10:04:15.688Z,11.27
2017-11-04T10:05:15.683Z,11.35
2017-11-04T10:06:16.104Z,11.41
2017-11-04T10:07:15.447Z,11.48
2017-11-04T10:08:15.978Z,11.45
2017-11-04T10:09:15.649Z,11.44
2017-11-04T10:10:15.646Z,11.51
2017-11-04T10:11:15.631Z,11.52
2017-11-04T10:12:15.723Z,11.6
2017-11-04T10:13:15.617Z,11.58
2017-11-04T10:14:15.613Z,11.53
2017-11-04T10:15:15.599Z,11.58
2017-11-04T10:16:15.598Z,11.56
2017-11-04T10:17:15.932Z,11.6
2017-11-04T10:18:15.894Z,11.52
2017-11-04T10:19:15.892Z,11.56
2017-11-04T10:20:15.235Z,11.56
2017-11-04T10:21:15.874Z,11.49
2017-11-04T10:22:15.220Z,11.53
2017-11-04T10:23:15.857Z,11.51
2017-11-04T10:24:15.208Z,11.48
2017-11-04T10:25:15.523Z,11.53
2017-11-04T10:26:15.518Z,11.52
2017-11-04T10:27:15.507Z,11.51
2017-11-04T10:28:15.927Z,11.48
2017-11-04T10:29:15.828Z,11.55
2017-11-04T10:30:15.810Z,11.58
2017-11-04T10:31:15.479Z,11.55
2017-11-04T10:32:15.243Z,11.53
2017-11-04T10:33:15.476Z,11.59
2017-11-04T10:34:15.773Z,11.58
2017-11-04T10:35:15.447Z,11.53
2017-11-04T10:36:15.769Z,11.62
2017-11-04T10:37:15.747Z,11.59
2017-11-04T10:38:15.452Z,11.6
2017-11-04T10:39:15.086Z,11.62
2017-11-04T10:40:15.402Z,11.68
2017-11-04T10:41:15.406Z,11.76
2017-11-04T10:42:15.387Z,11.78
2017-11-04T10:43:15.381Z,11.71
2017-11-04T10:44:15.478Z,11.8
2017-11-04T10:45:15.700Z,11.8
2017-11-04T10:46:15.681Z,11.83
2017-11-04T10:47:15.023Z,11.89
2017-11-04T10:48:15.659Z,11.95
2017-11-04T10:49:15.010Z,12
2017-11-04T10:50:15.001Z,11.96
2017-11-04T10:51:15.316Z,12.12
2017-11-04T10:52:15.634Z,12.15
2017-11-04T10:53:14.976Z,12.11
2017-11-04T10:54:14.969Z,12.3
2017-11-04T10:55:15.292Z,12.35
2017-11-04T10:56:15.601Z,12.32
2017-11-04T10:57:15.590Z,12.3
2017-11-04T10:58:15.587Z,12.32
2017-11-04T10:59:15.582Z,12.45
2017-11-04T11:00:14.921Z,12.47
2017-11-04T11:01:15.567Z,12.53
2017-11-04T11:02:14.905Z,12.5
2017-11-04T11:03:15.562Z,12.58
2017-11-04T11:04:15.214Z,12.55
2017-11-04T11:05:15.204Z,12.63
2017-11-04T11:06:15.199Z,12.73
2017-11-04T11:07:15.286Z,12.72
2017-11-04T11:08:14.860Z,12.73
2017-11-04T11:09:15.172Z,12.83
2017-11-04T11:10:15.163Z,12.84
2017-11-04T11:11:15.158Z,12.78
2017-11-04T11:12:14.828Z,12.81
2017-11-04T11:13:15.495Z,12.86
2017-11-04T11:14:15.481Z,12.88
2017-11-04T11:15:14.803Z,12.98
2017-11-04T11:16:15.121Z,12.98
2017-11-04T11:17:14.987Z,12.93
2017-11-04T11:18:15.103Z,12.95
2017-11-04T11:19:15.110Z,12.93
2017-11-04T11:20:14.764Z,12.86
2017-11-04T11:21:15.081Z,12.87
2017-11-04T11:22:15.113Z,12.93
2017-11-04T11:23:15.385Z,12.94
2017-11-04T11:24:15.054Z,13.01
2017-11-04T11:25:15.049Z,13.05
2017-11-04T11:26:15.039Z,13.06
2017-11-04T11:27:14.710Z,13.11
2017-11-04T11:28:15.353Z,13.05
2017-11-04T11:29:14.694Z,13.17
2017-11-04T11:30:15.437Z,13.2
2017-11-04T11:31:15.003Z,13.3
2017-11-04T11:32:15.316Z,13.17
2017-11-04T11:33:14.986Z,13.28
2017-11-04T11:34:15.296Z,13.27
2017-11-04T11:35:15.300Z,13.39
2017-11-04T11:36:15.062Z,13.39
2017-11-04T11:37:14.959Z,13.36
2017-11-04T11:38:14.950Z,13.49
2017-11-04T11:39:15.268Z,13.52
2017-11-04T11:40:14.611Z,13.5
2017-11-04T11:41:14.924Z,13.61
2017-11-04T11:42:15.252Z,13.61
2017-11-04T11:43:14.915Z,13.6
2017-11-04T11:44:15.226Z,13.75
2017-11-04T11:45:15.213Z,13.73
2017-11-04T11:46:15.311Z,13.76
2017-11-04T11:47:15.202Z,13.75
2017-11-04T11:48:14.868Z,13.8
2017-11-04T11:49:14.538Z,13.76
2017-11-04T11:50:14.530Z,13.76
2017-11-04T11:51:14.527Z,13.89
2017-11-04T11:52:15.162Z,13.93
2017-11-04T11:53:14.830Z,13.82
2017-11-04T11:54:15.155Z,14
2017-11-04T11:55:14.493Z,13.89
2017-11-04T11:56:14.836Z,13.97
2017-11-04T11:57:14.799Z,13.98
2017-11-04T11:58:14.794Z,14
2017-11-04T11:59:14.783Z,14.05
2017-11-04T12:00:14.459Z,14.08
2017-11-04T12:01:15.095Z,14.16
2017-11-04T12:02:14.774Z,14.16
2017-11-04T12:03:14.861Z,14.19
2017-11-04T12:04:14.746Z,14.19
2017-11-04T12:05:14.746Z,14.25
2017-11-04T12:06:14.734Z,14.28
2017-11-04T12:07:14.729Z,14.33
2017-11-04T12:08:14.720Z,14.33
2017-11-04T12:09:14.710Z,14.25
2017-11-04T12:10:14.702Z,14.3
2017-11-04T12:11:15.022Z,14.38
2017-11-04T12:12:14.693Z,14.41
2017-11-04T12:13:14.680Z,14.38
2017-11-04T12:14:14.997Z,14.43
2017-11-04T12:15:14.670Z,14.51
2017-11-04T12:16:14.981Z,14.56
2017-11-04T12:17:14.647Z,14.52
2017-11-04T12:18:14.741Z,14.55
2017-11-04T12:19:14.952Z,14.49
2017-11-04T12:20:14.303Z,14.53
2017-11-04T12:21:14.940Z,14.55
2017-11-04T12:22:14.612Z,14.62
2017-11-04T12:23:14.609Z,14.61
2017-11-04T12:24:14.596Z,14.61
2017-11-04T12:25:14.587Z,14.61
2017-11-04T12:26:14.259Z,14.68
2017-11-04T12:27:14.574Z,14.7
2017-11-04T12:28:14.244Z,14.7
2017-11-04T12:29:14.233Z,14.78
2017-11-04T12:30:14.226Z,14.89
2017-11-04T12:31:14.545Z,14.86
2017-11-04T12:32:14.541Z,14.94
2017-11-04T12:33:14.305Z,14.97
2017-11-04T12:34:14.197Z,15.02
2017-11-04T12:35:14.512Z,14.97
2017-11-04T12:36:14.505Z,14.93
2017-11-04T12:37:14.821Z,15
2017-11-04T12:38:14.813Z,14.97
2017-11-04T12:39:14.484Z,15.02
2017-11-04T12:40:14.476Z,14.96
2017-11-04T12:41:14.820Z,15
2017-11-04T12:42:14.460Z,15.04
2017-11-04T12:43:14.130Z,15
2017-11-04T12:44:14.764Z,15.05
2017-11-04T12:45:14.120Z,15.05
2017-11-04T12:46:14.429Z,15.02
2017-11-04T12:47:14.421Z,15.04
2017-11-04T12:48:14.846Z,15.02
2017-11-04T12:49:14.430Z,15.04
2017-11-04T12:50:14.081Z,14.92
2017-11-04T12:51:14.393Z,14.9
2017-11-04T12:52:14.381Z,14.9
2017-11-04T12:53:14.378Z,14.9
2017-11-04T12:54:14.047Z,14.74
2017-11-04T12:55:14.682Z,14.9
2017-11-04T12:56:14.355Z,14.94
2017-11-04T12:57:14.671Z,14.94
2017-11-04T12:58:14.359Z,14.97
2017-11-04T12:59:14.110Z,15.04
2017-11-04T13:00:14.001Z,15.05
2017-11-04T13:01:13.991Z,14.96
2017-11-04T13:02:13.986Z,15.05
2017-11-04T13:03:14.302Z,15.11
2017-11-04T13:04:14.295Z,15.07
2017-11-04T13:05:14.287Z,15.14
2017-11-04T13:06:14.603Z,15.23
2017-11-04T13:07:14.272Z,15.25
2017-11-04T13:08:14.264Z,15.25
2017-11-04T13:09:13.933Z,15.18
2017-11-04T13:10:14.250Z,15.04
2017-11-04T13:11:14.246Z,15.11
2017-11-04T13:12:14.562Z,15.1